Time,TemperatureF,DewpointF,PressureIn,WindDirection,WindDirectionDegrees,WindSpeedMPH,WindSpeedGustMPH,Humidity,HourlyPrecipIn,Conditions,Clouds,dailyrainin,SoftwareType,DateUTC
2013-04-17 00:00:00,64.1,59.4,30.20,SSW,203,6.8,13.8,85,0.00,,,0.00,WUHU216HW,2013-04-17 04:00:00,
2013-04-17 00:05:00,63.2,59.2,30.21,SSW,203,8.0,13.8,87,0.00,,,0.00,WUHU216HW,2013-04-17 04:05:00,
2013-04-17 00:10:00,62.4,58.7,30.20,WNW,293,4.3,8.0,88,0.00,,,0.00,WUHU216HW,2013-04-17 04:10:00,
2013-04-17 00:15:00,61.4,58.7,30.19,WSW,248,4.3,8.0,91,0.05,,,0.05,WUHU216HW,2013-04-17 04:15:00,
2013-04-17 00:20:00,60.6,58.2,30.20,SW,225,3.1,5.8,92,0.06,,,0.06,WUHU216HW,2013-04-17 04:20:00,
2013-04-17 00:25:00,60.5,58.1,30.20,West,270,1.9,5.8,92,0.06,,,0.06,WUHU216HW,2013-04-17 04:25:00,
2013-04-17 00:30:00,60.3,58.0,30.20,WSW,248,0.3,3.1,92,0.07,,,0.07,WUHU216HW,2013-04-17 04:30:00,
2013-04-17 00:35:00,60.1,57.8,30.20,SW,225,0.0,1.9,92,0.07,,,0.07,WUHU216HW,2013-04-17 04:35:00,
2013-04-17 00:40:00,60.1,57.8,30.20,WSW,248,0.0,0.3,92,0.07,,,0.07,WUHU216HW,2013-04-17 04:40:00,
2013-04-17 00:45:00,59.7,57.7,30.19,East,90,0.0,0.0,93,0.09,,,0.09,WUHU216HW,2013-04-17 04:45:00,
2013-04-17 00:50:00,59.7,58.0,30.18,SSW,203,0.7,1.9,94,0.11,,,0.11,WUHU216HW,2013-04-17 04:50:00,
2013-04-17 00:55:00,59.6,58.3,30.19,WSW,248,0.0,1.9,95,0.11,,,0.11,WUHU216HW,2013-04-17 04:55:00,
2013-04-17 01:00:00,59.6,58.3,30.19,ENE,68,0.0,0.7,96,0.12,,,0.12,WUHU216HW,2013-04-17 05:00:00,
2013-04-17 01:05:00,59.4,58.1,30.18,North,0,2.2,2.2,96,0.13,,,0.13,WUHU216HW,2013-04-17 05:05:00,
2013-04-17 01:10:00,59.2,58.2,30.19,NW,315,3.1,3.1,97,0.10,,,0.13,WUHU216HW,2013-04-17 05:10:00,
2013-04-17 01:15:00,59.0,58.9,30.19,NNW,338,9.2,9.2,100,0.08,,,0.13,WUHU216HW,2013-04-17 05:15:00,
2013-04-17 01:20:00,58.8,58.4,30.19,SE,135,0.3,9.2,99,0.08,,,0.14,WUHU216HW,2013-04-17 05:20:00,
2013-04-17 01:25:00,58.8,58.2,30.19,ENE,68,1.2,9.2,98,0.07,,,0.14,WUHU216HW,2013-04-17 05:25:00,
2013-04-17 01:30:00,58.8,58.5,30.18,ENE,68,0.7,1.2,99,0.08,,,0.15,WUHU216HW,2013-04-17 05:30:00,
2013-04-17 01:35:00,58.8,58.5,30.18,NNE,23,0.7,1.2,99,0.08,,,0.15,WUHU216HW,2013-04-17 05:35:00,
2013-04-17 01:40:00,58.7,58.4,30.16,NNE,23,0.0,0.7,99,0.07,,,0.15,WUHU216HW,2013-04-17 05:40:00,
2013-04-17 01:45:00,58.7,58.4,30.16,NNE,23,0.0,0.7,99,0.06,,,0.15,WUHU216HW,2013-04-17 05:45:00,
2013-04-17 01:50:00,58.5,58.2,30.16,East,90,0.0,0.7,99,0.04,,,0.15,WUHU216HW,2013-04-17 05:50:00,
2013-04-17 01:55:00,58.3,58.0,30.17,ESE,113,0.3,0.7,99,0.04,,,0.15,WUHU216HW,2013-04-17 05:55:00,
2013-04-17 02:00:00,58.1,57.8,30.16,ESE,113,0.0,0.3,99,0.02,,,0.15,WUHU216HW,2013-04-17 06:00:00,
2013-04-17 02:05:00,58.1,57.9,30.17,ESE,113,0.0,0.3,99,0.02,,,0.15,WUHU216HW,2013-04-17 06:05:00,
2013-04-17 02:10:00,57.9,57.4,30.16,ESE,113,0.0,0.0,98,0.02,,,0.15,WUHU216HW,2013-04-17 06:10:00,
2013-04-17 02:15:00,57.9,57.7,30.16,ESE,113,0.0,0.0,99,0.02,,,0.15,WUHU216HW,2013-04-17 06:15:00,
2013-04-17 02:20:00,57.8,57.6,30.15,ESE,113,0.0,0.0,99,0.01,,,0.15,WUHU216HW,2013-04-17 06:20:00,
2013-04-17 02:25:00,57.8,57.6,30.15,ESE,113,0.0,0.0,99,0.00,,,0.15,WUHU216HW,2013-04-17 06:25:00,
2013-04-17 02:30:00,57.8,57.6,30.14,ESE,113,0.0,0.0,99,0.00,,,0.15,WUHU216HW,2013-04-17 06:30:00,
2013-04-17 02:35:00,57.8,57.6,30.14,ESE,113,0.0,0.0,99,0.00,,,0.15,WUHU216HW,2013-04-17 06:35:00,
2013-04-17 02:40:00,57.8,57.6,30.13,ENE,68,0.7,0.7,99,0.00,,,0.15,WUHU216HW,2013-04-17 06:40:00,
2013-04-17 02:45:00,57.8,57.8,30.13,North,0,0.0,0.7,100,0.00,,,0.15,WUHU216HW,2013-04-17 06:45:00,
2013-04-17 02:50:00,57.6,57.6,30.13,North,0,0.0,0.7,100,0.00,,,0.15,WUHU216HW,2013-04-17 06:50:00,
2013-04-17 02:55:00,57.4,57.4,30.13,ENE,68,0.7,0.7,100,0.00,,,0.15,WUHU216HW,2013-04-17 06:55:00,
2013-04-17 03:00:00,57.4,57.4,30.13,ENE,68,0.0,0.7,100,0.00,,,0.15,WUHU216HW,2013-04-17 07:00:00,
2013-04-17 03:05:00,57.4,57.4,30.13,ENE,68,0.0,0.7,100,0.00,,,0.15,WUHU216HW,2013-04-17 07:05:00,
2013-04-17 03:10:00,57.6,57.6,30.13,East,90,0.0,0.0,100,0.00,,,0.15,WUHU216HW,2013-04-17 07:10:00,
2013-04-17 03:15:00,57.4,57.4,30.13,ENE,68,0.0,0.3,100,0.00,,,0.15,WUHU216HW,2013-04-17 07:15:00,
2013-04-17 03:20:00,57.4,57.4,30.13,ENE,68,0.0,0.3,100,0.00,,,0.15,WUHU216HW,2013-04-17 07:20:00,
2013-04-17 03:25:00,57.2,57.2,30.13,ENE,68,0.0,0.0,100,0.00,,,0.15,WUHU216HW,2013-04-17 07:25:00,
2013-04-17 03:30:00,57.0,57.0,30.13,NW,315,0.7,0.7,100,0.00,,,0.15,WUHU216HW,2013-04-17 07:30:00,
2013-04-17 03:35:00,56.7,56.7,30.13,NNW,338,0.0,0.7,100,0.00,,,0.15,WUHU216HW,2013-04-17 07:35:00,
2013-04-17 03:40:00,56.7,56.7,30.12,NNW,338,0.0,0.7,100,0.00,,,0.15,WUHU216HW,2013-04-17 07:40:00,
2013-04-17 03:45:00,56.5,56.5,30.13,WNW,293,0.0,0.0,100,0.00,,,0.15,WUHU216HW,2013-04-17 07:45:00,
2013-04-17 03:50:00,56.3,56.3,30.13,WNW,293,0.0,0.0,100,0.00,,,0.15,WUHU216HW,2013-04-17 07:50:00,
2013-04-17 03:55:00,56.1,56.1,30.13,WNW,293,0.0,0.0,100,0.00,,,0.15,WUHU216HW,2013-04-17 07:55:00,
2013-04-17 04:00:00,55.6,55.6,30.13,East,90,0.0,1.5,100,0.00,,,0.15,WUHU216HW,2013-04-17 08:00:00,
2013-04-17 04:05:00,55.2,55.2,30.13,East,90,0.0,1.5,100,0.00,,,0.15,WUHU216HW,2013-04-17 08:05:00,
2013-04-17 04:10:00,55.1,55.1,30.13,East,90,0.0,0.0,100,0.00,,,0.15,WUHU216HW,2013-04-17 08:10:00,
2013-04-17 04:15:00,54.9,54.9,30.13,East,90,0.0,0.0,100,0.00,,,0.15,WUHU216HW,2013-04-17 08:15:00,
2013-04-17 04:20:00,54.9,54.9,30.13,ESE,113,0.0,0.0,100,0.00,,,0.15,WUHU216HW,2013-04-17 08:20:00,
2013-04-17 04:25:00,54.7,54.7,30.13,ESE,113,0.0,0.0,100,0.00,,,0.15,WUHU216HW,2013-04-17 08:25:00,
2013-04-17 04:30:00,54.9,54.9,30.13,ENE,68,0.7,0.7,100,0.00,,,0.15,WUHU216HW,2013-04-17 08:30:00,
2013-04-17 04:35:00,54.9,54.9,30.14,ENE,68,0.3,0.7,100,0.00,,,0.15,WUHU216HW,2013-04-17 08:35:00,
2013-04-17 04:40:00,55.1,55.1,30.14,ENE,68,0.0,0.7,100,0.00,,,0.15,WUHU216HW,2013-04-17 08:40:00,
2013-04-17 04:45:00,55.1,55.1,30.14,ENE,68,0.0,0.7,100,0.00,,,0.15,WUHU216HW,2013-04-17 08:45:00,
2013-04-17 04:50:00,55.1,55.1,30.14,ENE,68,0.0,0.7,100,0.00,,,0.15,WUHU216HW,2013-04-17 08:50:00,
2013-04-17 04:55:00,55.1,55.1,30.15,ENE,68,0.0,0.0,100,0.00,,,0.15,WUHU216HW,2013-04-17 08:55:00,
2013-04-17 05:00:00,54.9,54.9,30.14,ENE,68,0.0,0.0,100,0.00,,,0.15,WUHU216HW,2013-04-17 09:00:00,
2013-04-17 05:05:00,54.7,54.7,30.14,ENE,68,0.0,0.0,100,0.00,,,0.15,WUHU216HW,2013-04-17 09:05:00,
2013-04-17 05:10:00,54.5,54.5,30.14,ENE,68,0.0,0.0,100,0.00,,,0.15,WUHU216HW,2013-04-17 09:10:00,
2013-04-17 05:15:00,54.3,54.3,30.14,ENE,68,0.7,0.7,100,0.00,,,0.15,WUHU216HW,2013-04-17 09:15:00,
2013-04-17 05:20:00,54.2,54.2,30.15,East,90,1.5,1.5,100,0.00,,,0.15,WUHU216HW,2013-04-17 09:20:00,
2013-04-17 05:25:00,54.2,54.2,30.15,East,90,0.0,1.5,100,0.00,,,0.15,WUHU216HW,2013-04-17 09:25:00,
2013-04-17 05:30:00,54.2,54.2,30.15,East,90,0.0,1.5,100,0.00,,,0.15,WUHU216HW,2013-04-17 09:30:00,
2013-04-17 05:35:00,53.8,53.8,30.15,East,90,0.0,0.0,100,0.00,,,0.15,WUHU216HW,2013-04-17 09:35:00,
2013-04-17 05:40:00,54.0,54.0,30.15,ENE,68,0.0,0.0,100,0.00,,,0.15,WUHU216HW,2013-04-17 09:40:00,
2013-04-17 05:45:00,53.8,53.8,30.15,SSE,158,0.7,0.7,100,0.00,,,0.15,WUHU216HW,2013-04-17 09:45:00,
2013-04-17 05:50:00,53.8,53.8,30.15,SSW,203,1.9,1.9,100,0.00,,,0.15,WUHU216HW,2013-04-17 09:50:00,
2013-04-17 05:55:00,53.8,53.8,30.15,SSW,203,0.0,1.9,100,0.00,,,0.15,WUHU216HW,2013-04-17 09:55:00,
2013-04-17 06:00:00,53.6,53.6,30.16,SSW,203,0.0,1.9,100,0.00,,,0.15,WUHU216HW,2013-04-17 10:00:00,
2013-04-17 06:05:00,53.4,53.4,30.16,SSW,203,0.0,0.0,100,0.00,,,0.15,WUHU216HW,2013-04-17 10:05:00,
2013-04-17 06:10:00,53.3,53.3,30.16,South,180,0.0,0.0,100,0.00,,,0.15,WUHU216HW,2013-04-17 10:10:00,
2013-04-17 06:15:00,53.3,53.3,30.16,SSE,158,0.0,0.0,100,0.00,,,0.15,WUHU216HW,2013-04-17 10:15:00,
2013-04-17 06:20:00,53.1,53.1,30.16,South,180,0.0,0.0,100,0.00,,,0.15,WUHU216HW,2013-04-17 10:20:00,
2013-04-17 06:25:00,53.1,53.1,30.16,South,180,0.0,0.0,100,0.00,,,0.15,WUHU216HW,2013-04-17 10:25:00,
2013-04-17 06:30:00,53.8,53.8,30.16,West,270,1.2,1.2,100,0.00,,,0.15,WUHU216HW,2013-04-17 10:30:00,
2013-04-17 06:35:00,54.2,54.2,30.16,West,270,0.3,1.2,100,0.00,,,0.15,WUHU216HW,2013-04-17 10:35:00,
2013-04-17 06:40:00,54.2,54.2,30.16,WSW,248,0.0,1.2,100,0.00,,,0.15,WUHU216HW,2013-04-17 10:40:00,
2013-04-17 06:45:00,54.0,54.0,30.17,SSW,203,0.0,0.7,100,0.00,,,0.15,WUHU216HW,2013-04-17 10:45:00,
2013-04-17 06:50:00,54.0,54.0,30.17,SSW,203,0.0,0.7,100,0.00,,,0.15,WUHU216HW,2013-04-17 10:50:00,
2013-04-17 06:55:00,54.0,54.0,30.17,SSW,203,0.0,0.0,100,0.00,,,0.15,WUHU216HW,2013-04-17 10:55:00,
2013-04-17 07:00:00,54.0,54.0,30.17,SSW,203,0.0,0.0,100,0.00,,,0.15,WUHU216HW,2013-04-17 11:00:00,
2013-04-17 07:05:00,54.2,54.2,30.18,SW,225,0.0,0.0,100,0.00,,,0.15,WUHU216HW,2013-04-17 11:05:00,
2013-04-17 07:10:00,54.2,54.2,30.18,SW,225,0.0,0.0,100,0.00,,,0.15,WUHU216HW,2013-04-17 11:10:00,
2013-04-17 07:15:00,54.3,54.3,30.18,West,270,0.3,0.3,100,0.00,,,0.15,WUHU216HW,2013-04-17 11:15:00,
2013-04-17 07:20:00,54.3,54.3,30.18,West,270,0.0,0.3,100,0.00,,,0.15,WUHU216HW,2013-04-17 11:20:00,
2013-04-17 07:25:00,54.5,54.5,30.18,ENE,68,1.2,1.5,100,0.00,,,0.15,WUHU216HW,2013-04-17 11:25:00,
2013-04-17 07:30:00,54.5,54.5,30.18,ENE,68,0.7,1.5,100,0.00,,,0.15,WUHU216HW,2013-04-17 11:30:00,
2013-04-17 07:35:00,55.1,55.1,30.18,ESE,113,0.7,1.5,100,0.00,,,0.15,WUHU216HW,2013-04-17 11:35:00,
2013-04-17 07:40:00,55.2,55.1,30.19,SE,135,0.3,1.5,100,0.00,,,0.15,WUHU216HW,2013-04-17 11:40:00,
2013-04-17 07:45:00,55.4,55.3,30.19,SE,135,0.0,0.7,100,0.00,,,0.15,WUHU216HW,2013-04-17 11:45:00,
2013-04-17 07:50:00,55.6,55.5,30.19,SE,135,0.0,0.3,100,0.00,,,0.15,WUHU216HW,2013-04-17 11:50:00,
2013-04-17 07:55:00,56.0,55.9,30.19,SE,135,0.0,0.0,100,0.00,,,0.15,WUHU216HW,2013-04-17 11:55:00,
2013-04-17 08:00:00,56.3,56.1,30.19,SE,135,0.0,0.0,99,0.00,,,0.15,WUHU216HW,2013-04-17 12:00:00,
2013-04-17 08:05:00,56.5,56.3,30.19,SE,135,0.0,0.0,99,0.00,,,0.15,WUHU216HW,2013-04-17 12:05:00,
2013-04-17 08:10:00,56.9,56.7,30.19,SE,135,0.0,0.0,99,0.00,,,0.15,WUHU216HW,2013-04-17 12:10:00,
2013-04-17 08:15:00,57.4,57.4,30.19,SW,225,1.2,1.2,100,0.00,,,0.15,WUHU216HW,2013-04-17 12:15:00,
2013-04-17 08:20:00,57.4,57.4,30.19,SW,225,0.0,1.2,100,0.00,,,0.15,WUHU216HW,2013-04-17 12:20:00,
2013-04-17 08:25:00,57.6,57.6,30.19,SW,225,0.7,1.2,100,0.00,,,0.15,WUHU216HW,2013-04-17 12:25:00,
2013-04-17 08:30:00,57.9,57.8,30.19,SSW,203,1.2,1.2,100,0.00,,,0.15,WUHU216HW,2013-04-17 12:30:00,
2013-04-17 08:35:00,58.1,58.0,30.19,SW,225,3.1,3.1,100,0.00,,,0.15,WUHU216HW,2013-04-17 12:35:00,
2013-04-17 08:40:00,58.1,58.0,30.19,SW,225,3.1,3.1,100,0.00,,,0.15,WUHU216HW,2013-04-17 12:40:00,
2013-04-17 08:45:00,58.3,58.1,30.20,SW,225,3.4,3.4,99,0.00,,,0.15,WUHU216HW,2013-04-17 12:45:00,
2013-04-17 08:50:00,58.3,58.1,30.19,SSW,203,3.1,3.4,99,0.00,,,0.15,WUHU216HW,2013-04-17 12:50:00,
2013-04-17 08:55:00,58.5,58.3,30.20,South,180,2.2,3.4,99,0.00,,,0.15,WUHU216HW,2013-04-17 12:55:00,
2013-04-17 09:00:00,58.5,58.5,30.20,SSW,203,5.3,5.3,100,0.00,,,0.15,WUHU216HW,2013-04-17 13:00:00,
2013-04-17 09:05:00,58.7,58.4,30.20,SSW,203,2.7,5.3,99,0.00,,,0.15,WUHU216HW,2013-04-17 13:05:00,
2013-04-17 09:10:00,58.5,58.1,30.20,SSE,158,4.3,5.3,99,0.00,,,0.15,WUHU216HW,2013-04-17 13:10:00,
2013-04-17 09:15:00,58.5,58.1,30.20,SW,225,4.6,4.6,99,0.00,,,0.15,WUHU216HW,2013-04-17 13:15:00,
2013-04-17 09:20:00,58.7,58.3,30.20,South,180,2.2,4.6,99,0.00,,,0.15,WUHU216HW,2013-04-17 13:20:00,
2013-04-17 09:25:00,58.8,58.3,30.20,SSW,203,2.2,4.6,98,0.00,,,0.15,WUHU216HW,2013-04-17 13:25:00,
2013-04-17 09:30:00,59.4,58.9,30.21,SSW,203,4.3,4.3,98,0.00,,,0.15,WUHU216HW,2013-04-17 13:30:00,
2013-04-17 09:35:00,59.7,59.2,30.21,SSW,203,1.9,4.3,98,0.00,,,0.15,WUHU216HW,2013-04-17 13:35:00,
2013-04-17 09:40:00,60.3,59.7,30.21,West,270,0.7,4.6,98,0.00,,,0.15,WUHU216HW,2013-04-17 13:40:00,
2013-04-17 09:45:00,60.8,60.2,30.21,WSW,248,1.5,4.6,98,0.00,,,0.15,WUHU216HW,2013-04-17 13:45:00,
2013-04-17 09:50:00,61.0,60.1,30.21,SSW,203,1.9,1.9,97,0.00,,,0.15,WUHU216HW,2013-04-17 13:50:00,
2013-04-17 09:55:00,61.7,60.4,30.20,NW,315,1.9,2.2,96,0.00,,,0.15,WUHU216HW,2013-04-17 13:55:00,
2013-04-17 10:00:00,61.9,60.6,30.21,North,0,0.3,2.2,96,0.00,,,0.15,WUHU216HW,2013-04-17 14:00:00,
2013-04-17 10:05:00,62.3,60.6,30.21,SW,225,0.7,1.9,94,0.00,,,0.15,WUHU216HW,2013-04-17 14:05:00,
2013-04-17 10:10:00,62.6,60.9,30.21,West,270,1.2,2.7,94,0.00,,,0.15,WUHU216HW,2013-04-17 14:10:00,
2013-04-17 10:15:00,62.8,60.8,30.21,NW,315,1.2,2.7,93,0.00,,,0.15,WUHU216HW,2013-04-17 14:15:00,
2013-04-17 10:20:00,63.0,60.6,30.21,NW,315,1.5,1.9,92,0.00,,,0.15,WUHU216HW,2013-04-17 14:20:00,
2013-04-17 10:25:00,63.0,60.3,30.21,NNW,338,0.7,1.9,91,0.00,,,0.15,WUHU216HW,2013-04-17 14:25:00,
2013-04-17 10:30:00,63.2,60.4,30.21,SSW,203,0.7,1.5,91,0.00,,,0.15,WUHU216HW,2013-04-17 14:30:00,
2013-04-17 10:35:00,63.7,61.2,30.21,SW,225,2.2,2.2,92,0.00,,,0.15,WUHU216HW,2013-04-17 14:35:00,
2013-04-17 10:40:00,63.9,61.0,30.21,West,270,4.3,6.1,91,0.00,,,0.15,WUHU216HW,2013-04-17 14:40:00,
2013-04-17 10:45:00,63.9,60.7,30.21,SW,225,3.7,6.1,89,0.00,,,0.15,WUHU216HW,2013-04-17 14:45:00,
2013-04-17 10:50:00,63.9,60.7,30.21,WSW,248,0.7,4.6,89,0.00,,,0.15,WUHU216HW,2013-04-17 14:50:00,
2013-04-17 10:55:00,64.1,60.5,30.21,NW,315,1.9,4.3,88,0.00,,,0.15,WUHU216HW,2013-04-17 14:55:00,
2013-04-17 11:00:00,65.0,61.0,30.21,South,180,0.7,4.3,87,0.00,,,0.15,WUHU216HW,2013-04-17 15:00:00,
2013-04-17 11:05:00,65.0,61.0,30.21,WSW,248,1.9,4.3,87,0.00,,,0.15,WUHU216HW,2013-04-17 15:05:00,
2013-04-17 11:10:00,64.8,60.8,30.21,SW,225,3.1,3.4,87,0.00,,,0.15,WUHU216HW,2013-04-17 15:10:00,
2013-04-17 11:15:00,64.6,60.3,30.21,WSW,248,0.7,3.4,86,0.00,,,0.15,WUHU216HW,2013-04-17 15:15:00,
2013-04-17 11:20:00,64.6,60.3,30.21,NNW,338,3.1,3.1,86,0.00,,,0.15,WUHU216HW,2013-04-17 15:20:00,
2013-04-17 11:25:00,64.4,60.1,30.21,South,180,1.2,3.1,86,0.00,,,0.15,WUHU216HW,2013-04-17 15:25:00,
2013-04-17 11:30:00,64.6,60.3,30.21,SW,225,3.4,3.4,86,0.00,,,0.15,WUHU216HW,2013-04-17 15:30:00,
2013-04-17 11:35:00,65.0,60.4,30.21,SW,225,1.9,3.7,85,0.00,,,0.15,WUHU216HW,2013-04-17 15:35:00,
2013-04-17 11:40:00,65.3,60.7,30.21,WSW,248,3.7,3.7,85,0.00,,,0.15,WUHU216HW,2013-04-17 15:40:00,
2013-04-17 11:45:00,66.4,61.8,30.21,NNW,338,4.6,4.9,85,0.00,,,0.15,WUHU216HW,2013-04-17 15:45:00,
2013-04-17 11:50:00,66.8,61.8,30.21,NNW,338,1.9,4.9,84,0.00,,,0.15,WUHU216HW,2013-04-17 15:50:00,
2013-04-17 11:55:00,66.9,61.6,30.21,WSW,248,2.2,5.3,83,0.00,,,0.15,WUHU216HW,2013-04-17 15:55:00,
2013-04-17 12:00:00,66.9,61.6,30.21,SW,225,2.7,5.3,83,0.00,,,0.15,WUHU216HW,2013-04-17 16:00:00,
2013-04-17 12:05:00,66.8,60.5,30.21,NNW,338,3.1,3.7,80,0.00,,,0.15,WUHU216HW,2013-04-17 16:05:00,
2013-04-17 12:10:00,66.8,60.8,30.21,SSW,203,4.3,4.3,81,0.00,,,0.15,WUHU216HW,2013-04-17 16:10:00,
2013-04-17 12:15:00,66.8,60.8,30.21,WSW,248,4.3,4.3,81,0.00,,,0.15,WUHU216HW,2013-04-17 16:15:00,
2013-04-17 12:20:00,66.4,60.5,30.21,WNW,293,0.7,4.3,81,0.00,,,0.15,WUHU216HW,2013-04-17 16:20:00,
2013-04-17 12:25:00,66.0,60.1,30.21,SW,225,5.8,5.8,81,0.00,,,0.15,WUHU216HW,2013-04-17 16:25:00,
2013-04-17 12:30:00,65.9,60.3,30.21,SW,225,6.1,6.1,82,0.00,,,0.15,WUHU216HW,2013-04-17 16:30:00,
2013-04-17 12:35:00,65.5,60.2,30.21,WNW,293,3.7,6.1,83,0.00,,,0.15,WUHU216HW,2013-04-17 16:35:00,
2013-04-17 12:40:00,65.7,60.4,30.21,WNW,293,2.7,6.1,83,0.00,,,0.15,WUHU216HW,2013-04-17 16:40:00,
2013-04-17 12:45:00,66.0,60.7,30.20,WSW,248,3.7,3.7,83,0.00,,,0.15,WUHU216HW,2013-04-17 16:45:00,
2013-04-17 12:50:00,66.8,61.5,30.21,WSW,248,6.1,6.1,83,0.00,,,0.15,WUHU216HW,2013-04-17 16:50:00,
2013-04-17 12:55:00,67.3,61.7,30.21,SSW,203,3.1,6.1,82,0.00,,,0.15,WUHU216HW,2013-04-17 16:55:00,
2013-04-17 13:00:00,67.5,61.2,30.20,SW,225,6.8,8.7,80,0.00,,,0.15,WUHU216HW,2013-04-17 17:00:00,
2013-04-17 13:05:00,67.3,61.0,30.20,SW,225,5.8,8.7,80,0.00,,,0.15,WUHU216HW,2013-04-17 17:05:00,
2013-04-17 13:10:00,67.3,61.0,30.20,SSW,203,4.3,9.2,80,0.00,,,0.15,WUHU216HW,2013-04-17 17:10:00,
2013-04-17 13:15:00,67.7,61.7,30.20,ENE,68,3.1,9.2,81,0.00,,,0.15,WUHU216HW,2013-04-17 17:15:00,
2013-04-17 13:21:00,67.8,61.1,30.20,WNW,293,2.2,4.3,79,0.00,,,0.15,WUHU216HW,2013-04-17 17:21:00,
2013-04-17 13:26:00,67.5,60.1,30.19,SW,225,1.9,3.4,77,0.00,,,0.15,WUHU216HW,2013-04-17 17:26:00,
2013-04-17 13:31:00,67.3,60.6,30.20,SW,225,6.5,6.5,79,0.00,,,0.15,WUHU216HW,2013-04-17 17:31:00,
2013-04-17 13:35:00,67.5,60.8,30.19,SSW,203,6.5,6.5,79,0.00,,,0.15,WUHU216HW,2013-04-17 17:35:00,
2013-04-17 13:40:00,67.5,60.5,30.19,SW,225,4.9,6.5,78,0.00,,,0.15,WUHU216HW,2013-04-17 17:40:00,
2013-04-17 13:45:00,67.3,60.6,30.20,SSW,203,7.3,7.3,79,0.00,,,0.15,WUHU216HW,2013-04-17 17:45:00,
2013-04-17 13:50:00,67.5,60.5,30.19,WSW,248,6.8,7.3,78,0.00,,,0.15,WUHU216HW,2013-04-17 17:50:00,
2013-04-17 13:55:00,67.1,60.1,30.19,NNW,338,1.9,7.3,78,0.00,,,0.15,WUHU216HW,2013-04-17 17:55:00,
2013-04-17 14:00:00,67.1,60.1,30.19,West,270,3.1,6.8,78,0.00,,,0.15,WUHU216HW,2013-04-17 18:00:00,
2013-04-17 14:05:00,66.4,60.1,30.19,SSW,203,5.8,6.8,80,0.00,,,0.15,WUHU216HW,2013-04-17 18:05:00,
2013-04-17 14:10:00,66.4,60.1,30.19,SW,225,5.8,6.8,80,0.00,,,0.15,WUHU216HW,2013-04-17 18:10:00,
2013-04-17 14:15:00,66.6,60.3,30.19,SW,225,5.3,7.3,80,0.00,,,0.15,WUHU216HW,2013-04-17 18:15:00,
2013-04-17 14:20:00,66.6,60.3,30.19,NNW,338,1.9,7.3,80,0.00,,,0.15,WUHU216HW,2013-04-17 18:20:00,
2013-04-17 14:25:00,66.8,60.5,30.19,SW,225,4.3,6.1,80,0.00,,,0.15,WUHU216HW,2013-04-17 18:25:00,
2013-04-17 14:30:00,66.8,60.5,30.19,SW,225,5.8,7.3,80,0.00,,,0.15,WUHU216HW,2013-04-17 18:30:00,
2013-04-17 14:35:00,66.9,60.6,30.18,WSW,248,4.3,7.3,80,0.00,,,0.15,WUHU216HW,2013-04-17 18:35:00,
2013-04-17 14:40:00,67.1,60.5,30.18,NNW,338,1.9,5.8,79,0.00,,,0.15,WUHU216HW,2013-04-17 18:40:00,
2013-04-17 14:45:00,67.3,60.6,30.18,WSW,248,6.8,6.8,79,0.00,,,0.15,WUHU216HW,2013-04-17 18:45:00,
2013-04-17 14:50:00,67.3,60.6,30.18,West,270,4.6,6.8,79,0.00,,,0.15,WUHU216HW,2013-04-17 18:50:00,
2013-04-17 14:55:00,67.1,60.1,30.18,SW,225,7.3,7.3,78,0.00,,,0.15,WUHU216HW,2013-04-17 18:55:00,
2013-04-17 15:00:00,67.1,59.8,30.18,SSW,203,6.8,7.3,77,0.00,,,0.15,WUHU216HW,2013-04-17 19:00:00,
2013-04-17 15:05:00,66.9,60.3,30.18,SW,225,6.1,7.3,79,0.00,,,0.15,WUHU216HW,2013-04-17 19:05:00,
2013-04-17 15:10:00,67.1,60.1,30.18,WSW,248,7.7,7.7,78,0.00,,,0.15,WUHU216HW,2013-04-17 19:10:00,
2013-04-17 15:15:00,66.9,59.9,30.18,SSW,203,3.7,7.7,78,0.00,,,0.15,WUHU216HW,2013-04-17 19:15:00,
2013-04-17 15:20:00,67.1,60.5,30.18,SW,225,8.0,8.3,79,0.00,,,0.15,WUHU216HW,2013-04-17 19:20:00,
2013-04-17 15:25:00,67.5,61.2,30.18,SW,225,7.3,8.3,80,0.00,,,0.15,WUHU216HW,2013-04-17 19:25:00,
2013-04-17 15:30:00,67.5,60.1,30.17,SSW,203,12.2,12.2,77,0.00,,,0.15,WUHU216HW,2013-04-17 19:30:00,
2013-04-17 15:35:00,67.3,59.9,30.17,WSW,248,4.3,12.2,77,0.00,,,0.15,WUHU216HW,2013-04-17 19:35:00,
2013-04-17 15:40:00,67.5,60.5,30.17,WSW,248,4.3,12.2,78,0.00,,,0.15,WUHU216HW,2013-04-17 19:40:00,
2013-04-17 15:45:00,67.1,59.8,30.16,SW,225,7.3,7.3,77,0.00,,,0.15,WUHU216HW,2013-04-17 19:45:00,
2013-04-17 15:50:00,66.8,59.8,30.17,West,270,3.4,7.3,78,0.00,,,0.15,WUHU216HW,2013-04-17 19:50:00,
2013-04-17 15:55:00,66.8,59.5,30.17,WSW,248,4.9,7.3,77,0.00,,,0.15,WUHU216HW,2013-04-17 19:55:00,
2013-04-17 16:00:00,66.6,59.3,30.17,WSW,248,6.8,7.7,77,0.00,,,0.15,WUHU216HW,2013-04-17 20:00:00,
2013-04-17 16:05:00,66.8,59.5,30.17,WNW,293,6.8,11.7,77,0.00,,,0.15,WUHU216HW,2013-04-17 20:05:00,
2013-04-17 16:10:00,66.6,59.3,30.17,SW,225,3.1,11.7,77,0.00,,,0.15,WUHU216HW,2013-04-17 20:10:00,
2013-04-17 16:15:00,66.6,59.3,30.17,WNW,293,3.1,7.3,77,0.00,,,0.15,WUHU216HW,2013-04-17 20:15:00,
2013-04-17 16:20:00,66.6,59.3,30.17,WSW,248,8.0,8.0,77,0.00,,,0.15,WUHU216HW,2013-04-17 20:20:00,
2013-04-17 16:25:00,66.2,58.9,30.16,SW,225,6.8,10.2,77,0.00,,,0.15,WUHU216HW,2013-04-17 20:25:00,
2013-04-17 16:30:00,66.0,58.7,30.17,SSW,203,6.8,10.2,77,0.00,,,0.15,WUHU216HW,2013-04-17 20:30:00,
2013-04-17 16:35:00,66.2,59.2,30.17,West,270,4.6,6.8,78,0.00,,,0.15,WUHU216HW,2013-04-17 20:35:00,
2013-04-17 16:40:00,66.4,59.4,30.17,NE,45,1.5,6.8,78,0.00,,,0.15,WUHU216HW,2013-04-17 20:40:00,
2013-04-17 16:45:00,66.4,59.1,30.17,WNW,293,4.9,5.8,77,0.00,,,0.15,WUHU216HW,2013-04-17 20:45:00,
2013-04-17 16:50:00,66.2,58.9,30.17,South,180,7.3,9.5,77,0.00,,,0.15,WUHU216HW,2013-04-17 20:50:00,
2013-04-17 16:55:00,66.2,58.9,30.17,West,270,3.7,9.5,77,0.00,,,0.15,WUHU216HW,2013-04-17 20:55:00,
2013-04-17 17:00:00,66.0,58.7,30.17,WNW,293,5.8,7.3,77,0.00,,,0.15,WUHU216HW,2013-04-17 21:00:00,
2013-04-17 17:05:00,66.0,58.7,30.17,SW,225,3.4,6.5,77,0.00,,,0.15,WUHU216HW,2013-04-17 21:05:00,
2013-04-17 17:10:00,66.0,58.7,30.17,West,270,8.0,8.0,77,0.00,,,0.15,WUHU216HW,2013-04-17 21:10:00,
2013-04-17 17:15:00,66.0,58.3,30.17,WSW,248,6.5,8.0,76,0.00,,,0.15,WUHU216HW,2013-04-17 21:15:00,
2013-04-17 17:20:00,65.7,58.4,30.17,SW,225,6.5,8.0,77,0.00,,,0.15,WUHU216HW,2013-04-17 21:20:00,
2013-04-17 17:25:00,65.7,58.4,30.17,SW,225,5.3,6.5,77,0.00,,,0.15,WUHU216HW,2013-04-17 21:25:00,
2013-04-17 17:30:00,65.3,58.0,30.17,WNW,293,3.1,6.5,77,0.00,,,0.15,WUHU216HW,2013-04-17 21:30:00,
2013-04-17 17:35:00,65.3,58.0,30.17,NW,315,1.9,5.3,77,0.00,,,0.15,WUHU216HW,2013-04-17 21:35:00,
2013-04-17 17:40:00,65.3,58.0,30.18,SW,225,4.3,6.1,77,0.00,,,0.15,WUHU216HW,2013-04-17 21:40:00,
2013-04-17 17:45:00,65.3,58.0,30.18,SW,225,3.1,6.1,77,0.00,,,0.15,WUHU216HW,2013-04-17 21:45:00,
2013-04-17 17:50:00,65.3,58.0,30.18,SW,225,5.8,5.8,77,0.00,,,0.15,WUHU216HW,2013-04-17 21:50:00,
2013-04-17 17:55:00,65.1,57.8,30.17,SSW,203,3.4,5.8,77,0.00,,,0.15,WUHU216HW,2013-04-17 21:55:00,
2013-04-17 18:00:00,65.0,58.1,30.18,West,270,1.9,5.8,78,0.00,,,0.15,WUHU216HW,2013-04-17 22:00:00,
2013-04-17 18:06:00,65.0,58.1,30.17,West,270,3.1,5.8,78,0.00,,,0.15,WUHU216HW,2013-04-17 22:06:00,
2013-04-17 18:11:00,65.0,57.7,30.17,SW,225,1.9,5.3,77,0.00,,,0.15,WUHU216HW,2013-04-17 22:11:00,
2013-04-17 18:16:00,65.0,58.1,30.18,WNW,293,2.7,4.6,78,0.00,,,0.15,WUHU216HW,2013-04-17 22:16:00,
2013-04-17 18:21:00,65.0,58.1,30.18,WSW,248,2.7,4.3,78,0.00,,,0.15,WUHU216HW,2013-04-17 22:21:00,
2013-04-17 18:26:00,65.0,57.7,30.18,WSW,248,4.3,4.3,77,0.00,,,0.15,WUHU216HW,2013-04-17 22:26:00,
2013-04-17 18:31:00,64.8,57.9,30.18,SW,225,4.3,4.3,78,0.00,,,0.15,WUHU216HW,2013-04-17 22:31:00,
2013-04-17 18:36:00,64.6,57.7,30.18,SW,225,2.7,7.3,78,0.00,,,0.15,WUHU216HW,2013-04-17 22:36:00,
2013-04-17 18:40:00,64.6,57.7,30.18,SW,225,3.1,7.3,78,0.00,,,0.15,WUHU216HW,2013-04-17 22:40:00,
2013-04-17 18:46:00,64.6,57.7,30.18,WSW,248,4.6,4.6,78,0.00,,,0.15,WUHU216HW,2013-04-17 22:46:00,
2013-04-17 18:51:00,64.6,57.7,30.18,WSW,248,6.5,6.5,78,0.00,,,0.15,WUHU216HW,2013-04-17 22:51:00,
2013-04-17 18:56:00,64.4,57.5,30.18,WSW,248,4.3,6.5,78,0.00,,,0.15,WUHU216HW,2013-04-17 22:56:00,
2013-04-17 19:01:00,64.4,57.5,30.18,SW,225,6.5,7.3,78,0.00,,,0.15,WUHU216HW,2013-04-17 23:01:00,
2013-04-17 19:06:00,64.2,57.6,30.18,SSW,203,8.3,8.3,79,0.00,,,0.15,WUHU216HW,2013-04-17 23:06:00,
2013-04-17 19:11:00,64.1,57.5,30.18,SW,225,4.6,8.3,79,0.00,,,0.15,WUHU216HW,2013-04-17 23:11:00,
2013-04-17 19:16:00,63.9,57.3,30.18,WSW,248,1.5,8.3,79,0.00,,,0.15,WUHU216HW,2013-04-17 23:16:00,
2013-04-17 19:20:00,63.9,57.3,30.18,SW,225,1.9,4.9,79,0.00,,,0.15,WUHU216HW,2013-04-17 23:20:00,
2013-04-17 19:26:00,63.9,57.3,30.18,SW,225,2.7,2.7,79,0.00,,,0.15,WUHU216HW,2013-04-17 23:26:00,
2013-04-17 19:31:00,63.9,57.7,30.19,WSW,248,3.1,3.1,80,0.00,,,0.15,WUHU216HW,2013-04-17 23:31:00,
2013-04-17 19:36:00,63.7,57.5,30.19,West,270,1.9,3.4,80,0.00,,,0.15,WUHU216HW,2013-04-17 23:36:00,
2013-04-17 19:41:00,63.5,57.3,30.19,West,270,1.9,4.3,80,0.00,,,0.15,WUHU216HW,2013-04-17 23:41:00,
2013-04-17 19:46:00,63.3,57.1,30.18,SW,225,2.2,4.3,80,0.00,,,0.15,WUHU216HW,2013-04-17 23:46:00,
2013-04-17 19:51:00,63.2,57.0,30.18,SW,225,1.9,2.2,80,0.00,,,0.15,WUHU216HW,2013-04-17 23:51:00,
2013-04-17 19:56:00,62.8,56.6,30.18,SW,225,3.4,4.3,80,0.00,,,0.15,WUHU216HW,2013-04-17 23:56:00,
2013-04-17 20:01:00,62.4,56.6,30.18,SW,225,3.7,4.3,81,0.00,,,0.15,WUHU216HW,2013-04-18 00:01:00,
2013-04-17 20:06:00,62.3,56.5,30.18,WSW,248,0.0,3.7,81,0.00,,,0.15,WUHU216HW,2013-04-18 00:06:00,
2013-04-17 20:11:00,62.1,56.3,30.18,SSW,203,1.9,3.7,81,0.00,,,0.15,WUHU216HW,2013-04-18 00:11:00,
2013-04-17 20:15:00,61.9,56.2,30.19,SW,225,0.7,1.9,81,0.00,,,0.15,WUHU216HW,2013-04-18 00:15:00,
2013-04-17 20:20:00,61.7,56.0,30.19,WNW,293,2.7,2.7,82,0.00,,,0.15,WUHU216HW,2013-04-18 00:20:00,
2013-04-17 20:25:00,61.7,56.1,30.19,West,270,1.9,2.7,82,0.00,,,0.15,WUHU216HW,2013-04-18 00:25:00,
2013-04-17 20:30:00,61.7,56.1,30.19,SW,225,3.1,3.1,82,0.00,,,0.15,WUHU216HW,2013-04-18 00:30:00,
2013-04-17 20:35:00,61.7,56.2,30.19,SSW,203,2.7,3.1,82,0.00,,,0.15,WUHU216HW,2013-04-18 00:35:00,
2013-04-17 20:40:00,61.5,56.3,30.19,SW,225,1.5,3.1,83,0.00,,,0.15,WUHU216HW,2013-04-18 00:40:00,
2013-04-17 20:45:00,61.4,56.0,30.19,SW,225,0.0,2.7,82,0.00,,,0.15,WUHU216HW,2013-04-18 00:45:00,
2013-04-17 20:50:00,61.2,55.8,30.19,SW,225,0.0,1.9,82,0.00,,,0.15,WUHU216HW,2013-04-18 00:50:00,
2013-04-17 20:55:00,61.0,55.7,30.19,SSW,203,0.0,1.2,83,0.00,,,0.15,WUHU216HW,2013-04-18 00:55:00,
2013-04-17 21:00:00,61.0,55.7,30.19,SSW,203,0.0,1.2,83,0.00,,,0.15,WUHU216HW,2013-04-18 01:00:00,
2013-04-17 21:05:00,60.8,55.9,30.19,SW,225,1.2,2.2,84,0.00,,,0.15,WUHU216HW,2013-04-18 01:05:00,
2013-04-17 21:10:00,60.8,55.9,30.19,West,270,1.5,2.2,84,0.00,,,0.15,WUHU216HW,2013-04-18 01:10:00,
2013-04-17 21:15:00,60.8,55.9,30.20,West,270,2.7,2.7,84,0.00,,,0.15,WUHU216HW,2013-04-18 01:15:00,
2013-04-17 21:20:00,61.0,56.2,30.19,NNW,338,0.3,2.7,84,0.00,,,0.15,WUHU216HW,2013-04-18 01:20:00,
2013-04-17 21:25:00,61.0,56.2,30.20,West,270,0.3,2.7,84,0.00,,,0.15,WUHU216HW,2013-04-18 01:25:00,
2013-04-17 21:30:00,61.0,55.9,30.20,North,0,0.7,0.7,83,0.00,,,0.15,WUHU216HW,2013-04-18 01:30:00,
2013-04-17 21:35:00,61.2,56.2,30.21,NW,315,2.2,2.7,84,0.00,,,0.15,WUHU216HW,2013-04-18 01:35:00,
2013-04-17 21:40:00,61.2,56.2,30.21,South,180,1.9,3.7,84,0.00,,,0.15,WUHU216HW,2013-04-18 01:40:00,
2013-04-17 21:45:00,61.2,55.9,30.21,NW,315,0.0,3.7,83,0.00,,,0.15,WUHU216HW,2013-04-18 01:45:00,
2013-04-17 21:50:00,61.0,55.8,30.21,WSW,248,0.7,1.9,83,0.00,,,0.15,WUHU216HW,2013-04-18 01:50:00,
2013-04-17 21:55:00,61.0,55.8,30.21,SW,225,0.0,0.7,83,0.00,,,0.15,WUHU216HW,2013-04-18 01:55:00,
2013-04-17 22:00:00,61.0,55.9,30.21,WSW,248,0.7,0.7,83,0.00,,,0.15,WUHU216HW,2013-04-18 02:00:00,
2013-04-17 22:05:00,61.0,55.9,30.22,East,90,0.7,1.2,83,0.00,,,0.15,WUHU216HW,2013-04-18 02:05:00,
2013-04-17 22:10:00,61.0,55.9,30.22,SW,225,1.5,1.5,83,0.00,,,0.15,WUHU216HW,2013-04-18 02:10:00,
2013-04-17 22:15:00,60.8,55.8,30.22,North,0,0.7,1.5,83,0.00,,,0.15,WUHU216HW,2013-04-18 02:15:00,
2013-04-17 22:21:00,60.8,55.8,30.22,NW,315,0.7,1.5,84,0.00,,,0.15,WUHU216HW,2013-04-18 02:21:00,
2013-04-17 22:25:00,60.6,55.6,30.21,West,270,0.0,0.7,84,0.00,,,0.15,WUHU216HW,2013-04-18 02:25:00,
2013-04-17 22:30:00,60.6,55.7,30.21,WSW,248,0.0,0.7,84,0.00,,,0.15,WUHU216HW,2013-04-18 02:30:00,
2013-04-17 22:36:00,60.6,55.7,30.21,West,270,0.3,2.7,84,0.00,,,0.15,WUHU216HW,2013-04-18 02:36:00,
2013-04-17 22:41:00,60.6,55.8,30.22,SW,225,1.2,2.7,84,0.00,,,0.15,WUHU216HW,2013-04-18 02:41:00,
2013-04-17 22:46:00,60.5,55.7,30.22,SW,225,0.0,1.2,84,0.00,,,0.15,WUHU216HW,2013-04-18 02:46:00,
2013-04-17 22:51:00,60.5,56.0,30.21,NW,315,1.9,1.9,85,0.00,,,0.15,WUHU216HW,2013-04-18 02:51:00,
2013-04-17 22:56:00,60.5,56.1,30.21,NNW,338,0.7,1.9,85,0.00,,,0.15,WUHU216HW,2013-04-18 02:56:00,
2013-04-17 23:01:00,60.5,56.1,30.21,NNW,338,0.7,1.9,85,0.00,,,0.15,WUHU216HW,2013-04-18 03:01:00,
2013-04-17 23:06:00,60.3,55.9,30.21,West,270,0.0,0.7,86,0.00,,,0.15,WUHU216HW,2013-04-18 03:06:00,
2013-04-17 23:11:00,60.1,55.8,30.21,West,270,0.0,0.7,86,0.00,,,0.15,WUHU216HW,2013-04-18 03:11:00,
2013-04-17 23:16:00,60.1,55.8,30.21,NNW,338,0.7,1.9,86,0.00,,,0.15,WUHU216HW,2013-04-18 03:16:00,
2013-04-17 23:21:00,60.1,55.8,30.21,NW,315,0.0,1.9,86,0.00,,,0.15,WUHU216HW,2013-04-18 03:21:00,
2013-04-17 23:26:00,60.1,55.9,30.21,NNW,338,0.0,0.7,86,0.00,,,0.15,WUHU216HW,2013-04-18 03:26:00,
2013-04-17 23:31:00,59.9,55.7,30.21,NNW,338,0.0,0.0,86,0.00,,,0.15,WUHU216HW,2013-04-18 03:31:00,
2013-04-17 23:36:00,59.9,55.7,30.21,North,0,0.7,0.7,86,0.00,,,0.15,WUHU216HW,2013-04-18 03:36:00,
2013-04-17 23:41:00,59.9,55.8,30.21,North,0,0.3,2.2,86,0.00,,,0.15,WUHU216HW,2013-04-18 03:41:00,
2013-04-17 23:46:00,59.9,56.1,30.21,NNW,338,0.0,2.2,87,0.00,,,0.15,WUHU216HW,2013-04-18 03:46:00,
2013-04-17 23:51:00,59.9,56.1,30.21,NNW,338,0.0,0.3,87,0.00,,,0.15,WUHU216HW,2013-04-18 03:51:00,
2013-04-17 23:56:00,59.7,56.0,30.21,NNE,23,1.2,1.2,88,0.00,,,0.15,WUHU216HW,2013-04-18 03:56:00,